Ellicott, Maryland
Current Conditions -  °F | °C
As of 8:54 AM on Thursday 27 Nov 2014 (Local Time) from KBWI Reporting Station
Scattered Clouds Scattered Clouds  
Wind Chill: 33°   Ceiling: Unl
Heat Index: 37°   Visibility: 10mi
Dew Point: 30°   Wind: 5mph
Humidity: 76%   Direction: 300°WNW
Pressure: 30.05"   Gusts: NA
Location:  39.2682°N, 76.8979°W
Report Text: KBWI 271354Z 30004KT 10SM FEW055 SCT070 03/M01 A3005 RMK AO2 SLP176 T00281011
Loading
Personal Weather Stations






























Interactive Weather Map New forecast layout! Learn more

10-Day Weather Forecast

Advertisements
Track Severe Weather on mobile